createdAt,value
2023-10-17T00:01:20.380Z,100135.53
2023-10-17T00:03:48.606Z,100117.88
2023-10-17T00:06:35.626Z,100137.47
2023-10-17T00:09:07.066Z,100141.00
2023-10-17T00:12:02.051Z,100141.81
2023-10-17T00:14:36.480Z,100128.44
2023-10-17T00:17:05.590Z,100107.53
2023-10-17T00:19:34.013Z,100127.63
2023-10-17T00:22:04.861Z,100138.59
2023-10-17T00:24:32.980Z,100139.41
2023-10-17T00:27:01.121Z,100132.19
2023-10-17T00:29:29.040Z,100138.59
2023-10-17T00:31:57.324Z,100137.81
2023-10-17T00:34:26.530Z,100145.69
2023-10-17T00:37:02.248Z,100143.63
2023-10-17T00:39:33.703Z,100136.41
2023-10-17T00:42:06.007Z,100134.94
2023-10-17T00:44:41.025Z,100131.41
2023-10-17T00:47:13.109Z,100123.16
2023-10-17T00:49:42.721Z,100130.09
2023-10-17T00:52:25.697Z,100132.84
2023-10-17T00:54:58.461Z,100125.75
2023-10-17T00:57:30.190Z,100124.28
2023-10-17T00:59:59.109Z,100120.28
2023-10-17T01:02:33.197Z,100121.88
2023-10-17T01:05:01.397Z,100118.66
2023-10-17T01:07:32.679Z,100115.63
2023-10-17T01:10:15.605Z,100113.34
2023-10-17T01:13:08.954Z,100118.84
2023-10-17T01:15:39.942Z,100124.31
2023-10-17T01:18:08.083Z,100115.28
2023-10-17T01:20:37.006Z,100121.56
2023-10-17T01:23:05.813Z,100123.19
2023-10-17T01:25:52.420Z,100119.34
2023-10-17T01:28:30.308Z,100120.16
2023-10-17T01:31:02.586Z,100106.72
2023-10-17T01:33:32.249Z,100113.00
2023-10-17T01:36:06.077Z,100095.50
2023-10-17T01:38:34.052Z,100105.63
2023-10-17T01:41:02.025Z,100106.09
2023-10-17T01:43:38.716Z,100096.44
2023-10-17T01:46:07.384Z,100105.13
2023-10-17T01:48:36.523Z,100105.91
2023-10-17T01:51:14.117Z,100096.09
2023-10-17T01:53:44.921Z,100081.97
2023-10-17T01:56:16.555Z,100100.44
2023-10-17T01:58:51.295Z,100094.66
2023-10-17T02:01:26.498Z,100098.03
2023-10-17T02:03:59.070Z,100102.03
2023-10-17T02:06:27.902Z,100097.41
2023-10-17T02:09:00.029Z,100099.00
2023-10-17T02:11:27.845Z,100074.69
2023-10-17T02:13:58.006Z,100088.03
2023-10-17T02:16:30.029Z,100088.84
2023-10-17T02:18:58.548Z,100088.03
2023-10-17T02:21:28.938Z,100086.44
2023-10-17T02:23:57.107Z,100077.69
2023-10-17T02:26:29.918Z,100090.25
2023-10-17T02:29:05.895Z,100088.66
2023-10-17T02:31:34.743Z,100081.56
2023-10-17T02:34:02.676Z,100085.00
2023-10-17T02:36:30.906Z,100091.41
2023-10-17T02:38:58.854Z,100090.13
2023-10-17T02:41:26.648Z,100083.16
2023-10-17T02:43:57.905Z,100087.06
2023-10-17T02:46:30.008Z,100084.50
2023-10-17T02:48:58.922Z,100084.66
2023-10-17T02:51:26.838Z,100078.38
2023-10-17T02:53:59.686Z,100055.56
2023-10-17T02:56:28.062Z,100050.41
2023-10-17T02:59:18.919Z,100063.41
2023-10-17T03:01:54.298Z,100068.09
2023-10-17T03:04:25.446Z,100076.31
2023-10-17T03:06:55.514Z,100074.69
2023-10-17T03:09:25.179Z,100073.56
2023-10-17T03:11:58.193Z,100073.22
2023-10-17T03:14:55.357Z,100063.25
2023-10-17T03:17:23.260Z,100063.72
2023-10-17T03:19:51.315Z,100060.97
2023-10-17T03:22:25.915Z,100068.09
2023-10-17T03:25:19.500Z,100062.25
2023-10-17T03:27:51.114Z,100053.88
2023-10-17T03:30:21.955Z,100064.19
2023-10-17T03:32:59.815Z,100053.88
2023-10-17T03:35:30.618Z,100062.59
2023-10-17T03:37:58.530Z,100061.44
2023-10-17T03:40:36.493Z,100061.44
2023-10-17T03:43:13.686Z,100063.72
2023-10-17T03:45:45.748Z,100061.44
2023-10-17T03:48:16.826Z,100063.41
2023-10-17T03:50:44.817Z,100062.59
2023-10-17T03:53:16.866Z,100071.63
2023-10-17T03:55:50.023Z,100073.56
2023-10-17T03:58:25.725Z,100072.72
2023-10-17T04:00:58.522Z,100065.66
2023-10-17T04:03:28.342Z,100075.81
2023-10-17T04:06:09.045Z,100079.34
2023-10-17T04:08:50.070Z,100079.06
2023-10-17T04:11:27.620Z,100074.69
2023-10-17T04:14:02.554Z,100077.41
2023-10-17T04:16:36.548Z,100073.56
2023-10-17T04:19:18.348Z,100044.00
2023-10-17T04:22:10.147Z,100069.88
2023-10-17T04:24:50.636Z,100064.84
2023-10-17T04:27:19.162Z,100066.66
2023-10-17T04:29:57.949Z,100067.94
2023-10-17T04:32:31.046Z,100068.28
2023-10-17T04:34:59.172Z,100063.47
2023-10-17T04:37:33.873Z,100063.94
2023-10-17T04:40:31.387Z,100051.09
2023-10-17T04:43:19.088Z,100056.50
2023-10-17T04:45:56.386Z,100048.28
2023-10-17T04:48:42.221Z,100056.63
2023-10-17T04:51:19.357Z,100035.34
2023-10-17T04:53:51.346Z,100035.81
2023-10-17T04:56:24.339Z,100039.03
2023-10-17T04:58:57.464Z,100042.09
2023-10-17T05:01:41.134Z,100051.13
2023-10-17T05:04:18.367Z,100039.81
2023-10-17T05:07:13.561Z,100032.63
2023-10-17T05:09:41.438Z,100031.94
2023-10-17T05:12:29.703Z,100034.34
2023-10-17T05:15:16.562Z,100033.41
2023-10-17T05:18:03.526Z,100041.53
2023-10-17T05:20:50.005Z,100043.59
2023-10-17T05:23:36.809Z,100054.56
2023-10-17T05:26:25.401Z,100049.88
2023-10-17T05:29:13.157Z,100061.66
2023-10-17T05:32:02.572Z,100060.16
2023-10-17T05:34:52.125Z,100062.09
2023-10-17T05:37:38.772Z,100067.25
2023-10-17T05:40:26.228Z,100062.59
2023-10-17T05:43:12.836Z,100060.16
2023-10-17T05:45:59.614Z,100060.50
2023-10-17T05:48:46.284Z,100063.41
2023-10-17T05:51:32.954Z,100065.78
2023-10-17T05:54:47.362Z,100066.59
2023-10-17T05:57:26.397Z,100072.88
2023-10-17T06:00:13.006Z,100074.47
2023-10-17T06:02:59.544Z,100071.75
2023-10-17T06:05:46.300Z,100072.72
2023-10-17T06:08:32.832Z,100079.16
2023-10-17T06:11:19.486Z,100075.97
2023-10-17T06:14:25.865Z,100065.78
2023-10-17T06:16:53.922Z,100083.16
2023-10-17T06:19:22.989Z,100078.22
2023-10-17T06:22:03.586Z,100078.66
2023-10-17T06:24:47.460Z,100082.56
2023-10-17T06:27:35.767Z,100086.44
2023-10-17T06:30:27.543Z,100084.31
2023-10-17T06:33:07.436Z,100081.09
2023-10-17T06:35:38.884Z,100081.91
2023-10-17T06:38:07.130Z,100047.88
2023-10-17T06:40:39.646Z,100073.19
2023-10-17T06:43:30.704Z,100077.53
2023-10-17T06:46:13.478Z,100073.28
2023-10-17T06:48:51.237Z,100078.94
2023-10-17T06:51:22.504Z,100071.16
2023-10-17T06:53:53.298Z,100084.19
2023-10-17T06:56:21.331Z,100076.44
2023-10-17T06:58:50.061Z,100080.44
2023-10-17T07:01:29.218Z,100086.63
2023-10-17T07:03:57.345Z,100100.47
2023-10-17T07:06:28.838Z,100086.63
2023-10-17T07:08:57.705Z,100101.38
2023-10-17T07:11:28.299Z,100104.34
2023-10-17T07:14:08.382Z,100109.16
2023-10-17T07:16:47.406Z,100125.63
2023-10-17T07:19:24.409Z,100119.78
2023-10-17T07:22:00.879Z,100138.00
2023-10-17T07:24:34.817Z,100135.25
2023-10-17T07:27:05.250Z,100138.44
2023-10-17T07:29:37.666Z,100138.44
2023-10-17T07:32:17.689Z,100139.13
2023-10-17T07:34:45.997Z,100144.28
2023-10-17T07:37:14.301Z,100151.03
2023-10-17T07:39:42.429Z,100148.78
2023-10-17T07:42:30.730Z,100146.50
2023-10-17T07:45:04.162Z,100141.00
2023-10-17T07:47:35.473Z,100146.03
2023-10-17T07:50:03.763Z,100152.25
2023-10-17T07:52:32.518Z,100146.41
2023-10-17T07:55:00.691Z,100158.31
2023-10-17T07:57:41.753Z,100146.88
2023-10-17T08:00:30.317Z,100145.06
2023-10-17T08:03:16.849Z,100110.13
2023-10-17T08:06:14.519Z,100136.06
2023-10-17T08:08:45.570Z,100114.78
2023-10-17T08:11:28.996Z,100108.50
2023-10-17T08:13:59.475Z,100104.94
2023-10-17T08:16:30.767Z,100102.19
2023-10-17T08:19:14.982Z,100134.19
2023-10-17T08:21:50.599Z,100109.75
2023-10-17T08:24:47.798Z,100144.94
2023-10-17T08:27:21.672Z,100144.16
2023-10-17T08:29:51.295Z,100142.69
2023-10-17T08:32:23.024Z,100099.91
2023-10-17T08:35:12.831Z,100149.69
2023-10-17T08:37:53.678Z,100148.53
2023-10-17T08:40:41.271Z,100124.72
2023-10-17T08:43:18.335Z,100134.44
2023-10-17T08:45:55.775Z,100113.63
2023-10-17T08:48:24.122Z,100118.41
2023-10-17T08:50:56.636Z,100139.28
2023-10-17T08:53:25.302Z,100066.00
2023-10-17T08:55:53.745Z,100138.25
2023-10-17T08:58:38.006Z,100141.28
2023-10-17T09:01:11.827Z,100132.69
2023-10-17T09:03:48.310Z,100144.72
2023-10-17T09:06:16.626Z,100138.00
2023-10-17T09:08:50.798Z,100099.91
2023-10-17T09:11:31.140Z,100144.94
2023-10-17T09:14:16.657Z,100131.44
2023-10-17T09:17:17.256Z,100138.09
2023-10-17T09:19:47.811Z,100054.41
2023-10-17T09:22:16.872Z,100119.59
2023-10-17T09:24:51.623Z,100137.16
2023-10-17T09:27:20.776Z,100102.41
2023-10-17T09:29:50.788Z,100127.28
2023-10-17T09:32:34.349Z,100126.47
2023-10-17T09:35:15.312Z,100091.16
2023-10-17T09:37:54.115Z,100124.88
2023-10-17T09:40:31.330Z,100122.13
2023-10-17T09:43:00.724Z,100116.72
2023-10-17T09:45:36.136Z,100113.63
2023-10-17T09:48:08.460Z,100121.78
2023-10-17T09:50:39.207Z,100128.09
2023-10-17T09:53:15.004Z,100124.22
2023-10-17T09:55:50.740Z,100131.66
2023-10-17T09:58:25.293Z,100108.84
2023-10-17T10:00:56.377Z,100131.50
2023-10-17T10:03:26.258Z,100113.63
2023-10-17T10:05:55.258Z,100103.19
2023-10-17T10:08:36.175Z,100125.22
2023-10-17T10:11:10.120Z,100072.59
2023-10-17T10:14:04.666Z,100120.97
2023-10-17T10:16:56.625Z,100113.63
2023-10-17T10:19:47.644Z,100125.66
2023-10-17T10:22:16.971Z,100133.59
2023-10-17T10:24:47.414Z,100126.03
2023-10-17T10:27:26.141Z,100115.34
2023-10-17T10:29:55.979Z,100126.63
2023-10-17T10:32:27.136Z,100125.81
2023-10-17T10:34:55.604Z,100128.25
2023-10-17T10:37:23.904Z,100107.34
2023-10-17T10:40:24.155Z,100129.03
2023-10-17T10:43:00.606Z,100124.22
2023-10-17T10:45:48.202Z,100103.00
2023-10-17T10:48:18.700Z,100125.00
2023-10-17T10:50:50.940Z,100121.13
2023-10-17T10:53:29.921Z,100118.06
2023-10-17T10:56:01.046Z,100118.50
2023-10-17T10:58:34.904Z,100124.81
2023-10-17T11:01:07.375Z,100036.56
2023-10-17T11:03:41.509Z,100105.66
2023-10-17T11:06:09.915Z,100112.78
2023-10-17T11:08:49.082Z,100080.78
2023-10-17T11:11:18.488Z,100083.69
2023-10-17T11:13:49.136Z,100094.25
2023-10-17T11:16:20.014Z,100092.44
2023-10-17T11:18:49.409Z,100090.25
2023-10-17T11:21:22.107Z,100088.78
2023-10-17T11:23:56.633Z,100079.41
2023-10-17T11:26:29.556Z,100073.66
2023-10-17T11:28:59.908Z,99920.75
2023-10-17T11:31:28.467Z,99944.84
2023-10-17T11:34:01.149Z,99988.22
2023-10-17T11:36:38.208Z,100058.78
2023-10-17T11:39:07.342Z,100055.69
2023-10-17T11:41:56.076Z,100051.00
2023-10-17T11:44:26.480Z,100048.69
2023-10-17T11:47:17.959Z,100043.22
2023-10-17T11:49:48.955Z,100029.81
2023-10-17T11:52:17.213Z,99912.03
2023-10-17T11:55:05.685Z,100033.06
2023-10-17T11:57:34.399Z,99995.13
2023-10-17T12:00:10.362Z,100015.75
2023-10-17T12:02:43.835Z,100030.63
2023-10-17T12:05:22.482Z,100013.00
2023-10-17T12:07:55.810Z,99997.66
2023-10-17T12:10:28.406Z,99983.59
2023-10-17T12:13:06.672Z,99990.47
2023-10-17T12:15:34.840Z,99983.25
2023-10-17T12:18:02.842Z,99983.38
2023-10-17T12:20:30.840Z,99912.50
2023-10-17T12:23:00.870Z,99962.78
2023-10-17T12:25:30.763Z,99887.31
2023-10-17T12:27:58.837Z,99935.63
2023-10-17T12:30:30.169Z,99903.25
2023-10-17T12:32:59.009Z,99877.28
2023-10-17T12:35:29.776Z,99966.09
2023-10-17T12:38:07.892Z,99979.72
2023-10-17T12:40:35.801Z,99929.69
2023-10-17T12:43:03.776Z,99886.41
2023-10-17T12:45:31.763Z,99970.31
2023-10-17T12:48:00.391Z,99950.72
2023-10-17T12:50:28.963Z,99973.41
2023-10-17T12:52:57.222Z,99975.00
2023-10-17T12:55:25.108Z,99965.50
2023-10-17T12:57:53.847Z,99948.47
2023-10-17T13:00:27.722Z,99944.56
2023-10-17T13:02:57.474Z,99865.75
2023-10-17T13:05:27.604Z,99945.59
2023-10-17T13:07:56.216Z,99953.03
2023-10-17T13:10:24.347Z,99930.97
2023-10-17T13:12:52.398Z,99935.63
2023-10-17T13:15:20.973Z,99932.22
2023-10-17T13:17:53.980Z,99876.38
2023-10-17T13:20:43.263Z,99931.88
2023-10-17T13:23:21.885Z,99915.97
2023-10-17T13:25:49.877Z,99918.47
2023-10-17T13:28:17.849Z,99898.09
2023-10-17T13:30:46.084Z,99841.72
2023-10-17T13:33:14.050Z,99903.94
2023-10-17T13:35:42.503Z,99918.34
2023-10-17T13:38:11.188Z,99836.81
2023-10-17T13:40:40.245Z,99831.19
2023-10-17T13:43:08.494Z,99919.81
2023-10-17T13:45:43.229Z,99918.88
2023-10-17T13:48:13.201Z,99894.56
2023-10-17T13:50:41.424Z,99901.88
2023-10-17T13:53:11.048Z,99886.75
2023-10-17T13:55:42.837Z,99892.13
2023-10-17T13:58:13.082Z,99870.16
2023-10-17T14:00:55.821Z,99845.81
2023-10-17T14:03:27.018Z,99903.31
2023-10-17T14:05:55.707Z,99918.66
2023-10-17T14:08:23.976Z,99824.41
2023-10-17T14:10:52.309Z,99867.22
2023-10-17T14:13:22.024Z,99830.13
2023-10-17T14:15:53.440Z,99883.44
2023-10-17T14:18:31.149Z,99890.03
2023-10-17T14:21:25.287Z,99906.97
2023-10-17T14:23:59.461Z,99899.44
2023-10-17T14:26:39.703Z,99893.13
2023-10-17T14:29:08.813Z,99903.31
2023-10-17T14:31:37.829Z,99897.03
2023-10-17T14:34:10.692Z,99859.16
2023-10-17T14:36:39.103Z,99904.47
2023-10-17T14:39:11.128Z,99893.03
2023-10-17T14:41:41.690Z,99878.16
2023-10-17T14:44:09.977Z,99896.09
2023-10-17T14:46:38.635Z,99886.53
2023-10-17T14:49:07.157Z,99875.66
2023-10-17T14:51:35.267Z,99811.44
2023-10-17T14:54:09.536Z,99899.13
2023-10-17T14:56:37.810Z,99903.00
2023-10-17T14:59:06.933Z,99896.16
2023-10-17T15:01:36.729Z,99902.88
2023-10-17T15:04:05.763Z,99839.78
2023-10-17T15:06:34.026Z,99892.03
2023-10-17T15:09:02.134Z,99899.69
2023-10-17T15:11:30.459Z,99880.22
2023-10-17T15:13:58.727Z,99830.38
2023-10-17T15:16:27.045Z,99810.38
2023-10-17T15:18:56.266Z,99870.41
2023-10-17T15:21:25.040Z,99888.44
2023-10-17T15:23:53.316Z,99890.41
2023-10-17T15:26:23.136Z,99887.56
2023-10-17T15:28:51.947Z,99853.72
2023-10-17T15:31:20.400Z,99871.66
2023-10-17T15:33:48.681Z,99813.78
2023-10-17T15:36:22.374Z,99869.03
2023-10-17T15:38:50.713Z,99870.63
2023-10-17T15:41:18.949Z,99858.72
2023-10-17T15:43:47.182Z,99834.84
2023-10-17T15:46:17.088Z,99845.09
2023-10-17T15:48:45.688Z,99867.88
2023-10-17T15:51:21.082Z,99860.78
2023-10-17T15:53:49.371Z,99817.56
2023-10-17T15:56:17.522Z,99846.59
2023-10-17T15:58:46.408Z,99867.41
2023-10-17T16:01:15.051Z,99862.75
2023-10-17T16:03:48.301Z,99805.00
2023-10-17T16:06:17.201Z,99856.31
2023-10-17T16:08:47.066Z,99865.13
2023-10-17T16:11:17.530Z,99850.25
2023-10-17T16:13:45.986Z,99849.34
2023-10-17T16:16:17.557Z,99759.16
2023-10-17T16:18:47.270Z,99831.75
2023-10-17T16:21:16.882Z,99824.22
2023-10-17T16:23:49.217Z,99851.41
2023-10-17T16:26:21.512Z,99844.09
2023-10-17T16:28:49.737Z,99857.25
2023-10-17T16:31:17.847Z,99863.19
2023-10-17T16:33:45.978Z,99849.59
2023-10-17T16:36:15.541Z,99856.91
2023-10-17T16:38:47.617Z,99870.63
2023-10-17T16:41:16.106Z,99872.22
2023-10-17T16:43:44.211Z,99854.50
2023-10-17T16:46:13.246Z,99882.50
2023-10-17T16:48:42.452Z,99882.78
2023-10-17T16:51:10.717Z,99873.38
2023-10-17T16:53:39.953Z,99875.31
2023-10-17T16:56:08.156Z,99878.59
2023-10-17T16:58:39.348Z,99874.25
2023-10-17T17:01:08.445Z,99838.75
2023-10-17T17:03:37.312Z,99867.19
2023-10-17T17:06:09.758Z,99869.03
2023-10-17T17:08:38.631Z,99876.81
2023-10-17T17:11:07.102Z,99888.50
2023-10-17T17:13:37.971Z,99863.56
2023-10-17T17:16:08.764Z,99784.22
2023-10-17T17:18:47.369Z,99869.84
2023-10-17T17:21:18.496Z,99889.16
2023-10-17T17:23:47.283Z,99864.78
2023-10-17T17:26:17.074Z,99879.31
2023-10-17T17:28:45.389Z,99883.44
2023-10-17T17:31:13.532Z,99882.72
2023-10-17T17:33:41.945Z,99862.25
2023-10-17T17:36:09.976Z,99848.66
2023-10-17T17:38:41.195Z,99862.03
2023-10-17T17:41:09.348Z,99885.81
2023-10-17T17:43:37.564Z,99872.53
2023-10-17T17:46:06.617Z,99884.78
2023-10-17T17:48:36.042Z,99883.84
2023-10-17T17:51:05.149Z,99874.78
2023-10-17T17:53:33.718Z,99884.75
2023-10-17T17:56:02.457Z,99855.97
2023-10-17T17:58:30.571Z,99894.13
2023-10-17T18:00:59.672Z,99895.03
2023-10-17T18:03:29.009Z,99886.34
2023-10-17T18:05:57.384Z,99839.63
2023-10-17T18:08:27.565Z,99858.72
2023-10-17T18:10:57.122Z,99869.19
2023-10-17T18:13:25.192Z,99888.84
2023-10-17T18:15:55.044Z,99897.91
2023-10-17T18:18:24.143Z,99871.34
2023-10-17T18:21:12.795Z,99887.47
2023-10-17T18:23:49.154Z,99884.25
2023-10-17T18:26:22.309Z,99860.72
2023-10-17T18:28:54.651Z,99846.22
2023-10-17T18:31:22.724Z,99882.66
2023-10-17T18:33:50.873Z,99880.84
2023-10-17T18:36:19.740Z,99878.38
2023-10-17T18:38:48.124Z,99878.75
2023-10-17T18:41:16.096Z,99874.31
2023-10-17T18:43:47.236Z,99861.81
2023-10-17T18:46:20.357Z,99866.38
2023-10-17T18:48:48.791Z,99857.47
2023-10-17T18:51:16.706Z,99840.38
2023-10-17T18:53:46.154Z,99862.25
2023-10-17T18:56:15.180Z,99853.47
2023-10-17T18:58:43.249Z,99873.81
2023-10-17T19:01:15.837Z,99867.31
2023-10-17T19:03:46.035Z,99870.97
2023-10-17T19:06:14.981Z,99866.88
2023-10-17T19:08:43.966Z,99867.75
2023-10-17T19:11:13.554Z,99778.31
2023-10-17T19:13:42.476Z,99814.75
2023-10-17T19:16:11.900Z,99735.56
2023-10-17T19:18:42.469Z,99775.22
2023-10-17T19:21:13.827Z,99844.09
2023-10-17T19:23:45.345Z,99802.41
2023-10-17T19:26:14.902Z,99819.28
2023-10-17T19:28:46.837Z,99819.28
2023-10-17T19:31:20.572Z,99843.38
2023-10-17T19:33:48.943Z,99827.19
2023-10-17T19:36:17.090Z,99783.31
2023-10-17T19:38:45.421Z,99832.09
2023-10-17T19:41:14.860Z,99785.16
2023-10-17T19:43:42.853Z,99845.69
2023-10-17T19:46:12.110Z,99850.38
2023-10-17T19:48:40.757Z,99844.88
2023-10-17T19:51:08.989Z,99749.72
2023-10-17T19:53:40.116Z,99832.88
2023-10-17T19:56:09.442Z,99852.78
2023-10-17T19:58:37.893Z,99790.31
2023-10-17T20:01:09.867Z,99857.34
2023-10-17T20:03:38.478Z,99851.41
2023-10-17T20:06:07.246Z,99839.88
2023-10-17T20:08:35.520Z,99774.97
2023-10-17T20:11:06.133Z,99848.22
2023-10-17T20:13:34.838Z,99832.31
2023-10-17T20:16:07.442Z,99819.97
2023-10-17T20:18:38.605Z,99776.72
2023-10-17T20:21:08.140Z,99812.78
2023-10-17T20:23:37.256Z,99707.50
2023-10-17T20:26:05.152Z,99835.88
2023-10-17T20:28:33.157Z,99761.13
2023-10-17T20:31:10.287Z,99771.31
2023-10-17T20:33:41.391Z,99829.13
2023-10-17T20:36:09.876Z,99843.09
2023-10-17T20:38:37.970Z,99835.28
2023-10-17T20:41:11.875Z,99783.53
2023-10-17T20:43:39.798Z,99835.72
2023-10-17T20:46:07.765Z,99843.88
2023-10-17T20:48:35.808Z,99842.00
2023-10-17T20:51:05.314Z,99842.81
2023-10-17T20:53:34.030Z,99752.09
2023-10-17T20:56:02.963Z,99752.00
2023-10-17T20:58:31.600Z,99770.88
2023-10-17T21:01:04.790Z,99827.91
2023-10-17T21:03:34.459Z,99817.03
2023-10-17T21:06:03.757Z,99839.97
2023-10-17T21:08:32.301Z,99848.22
2023-10-17T21:11:00.880Z,99839.88
2023-10-17T21:13:30.461Z,99732.00
2023-10-17T21:16:10.868Z,99831.19
2023-10-17T21:18:40.533Z,99829.44
2023-10-17T21:21:09.376Z,99812.66
2023-10-17T21:23:37.857Z,99761.50
2023-10-17T21:26:06.109Z,99764.69
2023-10-17T21:28:34.367Z,99730.84
2023-10-17T21:31:06.401Z,99768.13
2023-10-17T21:33:36.710Z,99740.22
2023-10-17T21:36:08.363Z,99822.69
2023-10-17T21:38:39.082Z,99756.69
2023-10-17T21:41:09.029Z,99659.50
2023-10-17T21:43:40.341Z,99810.09
2023-10-17T21:46:09.270Z,99813.22
2023-10-17T21:48:37.630Z,99760.19
2023-10-17T21:51:10.853Z,99721.47
2023-10-17T21:53:41.002Z,99795.72
2023-10-17T21:56:09.405Z,99799.00
2023-10-17T21:58:39.836Z,99785.63
2023-10-17T22:01:17.016Z,99719.50
2023-10-17T22:03:45.366Z,99789.88
2023-10-17T22:06:16.456Z,99723.97
2023-10-17T22:08:46.502Z,99791.81
2023-10-17T22:11:14.890Z,99730.94
2023-10-17T22:13:46.271Z,99788.50
2023-10-17T22:16:15.909Z,99776.09
2023-10-17T22:18:45.193Z,99792.19
2023-10-17T22:21:14.057Z,99765.34
2023-10-17T22:23:42.033Z,99798.00
2023-10-17T22:26:14.752Z,99804.41
2023-10-17T22:28:43.342Z,99798.13
2023-10-17T22:31:11.496Z,99786.91
2023-10-17T22:33:40.994Z,99791.72
2023-10-17T22:36:09.838Z,99793.41
2023-10-17T22:38:37.870Z,99787.91
2023-10-17T22:41:06.135Z,99793.41
2023-10-17T22:43:35.138Z,99679.00
2023-10-17T22:46:06.477Z,99737.69
2023-10-17T22:48:35.599Z,99785.41
2023-10-17T22:51:06.341Z,99789.16
2023-10-17T22:53:34.983Z,99795.09
2023-10-17T22:56:03.780Z,99784.09
2023-10-17T22:58:31.998Z,99782.31
2023-10-17T23:01:00.032Z,99758.22
2023-10-17T23:03:28.657Z,99621.13
2023-10-17T23:05:57.311Z,99716.41
2023-10-17T23:08:25.703Z,99615.50
2023-10-17T23:10:53.830Z,99750.59
2023-10-17T23:13:22.649Z,99747.88
2023-10-17T23:15:50.760Z,99755.03
2023-10-17T23:18:19.752Z,99742.38
2023-10-17T23:20:48.474Z,99758.94
2023-10-17T23:23:21.342Z,99741.22
2023-10-17T23:25:55.818Z,99754.16
2023-10-17T23:28:27.866Z,99672.75
2023-10-17T23:30:56.291Z,99733.56
2023-10-17T23:33:24.685Z,99712.72
2023-10-17T23:35:53.358Z,99609.09
2023-10-17T23:38:22.910Z,99675.22
2023-10-17T23:40:50.847Z,99681.19
2023-10-17T23:43:18.704Z,99729.66
2023-10-17T23:45:51.460Z,99741.66
2023-10-17T23:48:27.851Z,99743.59
2023-10-17T23:50:56.733Z,99725.56
2023-10-17T23:53:30.568Z,99742.06
2023-10-17T23:56:03.908Z,99666.19
2023-10-17T23:58:33.451Z,99747.75
